Time;durP1;ratioP1;P1;durP2;ratioP2;P2;SDS_P1;SDS_P2;PMS_P1;PMS_P2;Temp;Humidity;BMP_temperature;BMP_pressure;BME280_temperature;BME280_humidity;BME280_pressure;Samples;Min_cycle;Max_cycle;Signal;HPM_P1;HPM_P2
2021/08/14 00:01:29;;;;;;;9.02;4.78;;;22.50;85.00;;;;;;5013280;28;20088;-82
2021/08/14 00:03:55;;;;;;;7.22;4.68;;;22.40;85.20;;;;;;5013110;28;20030;-83
2021/08/14 00:06:21;;;;;;;8.68;4.88;;;22.50;85.10;;;;;;5029964;28;20076;-82
2021/08/14 00:08:47;;;;;;;7.43;4.93;;;22.50;84.90;;;;;;5030078;28;20175;-83
2021/08/14 00:11:12;;;;;;;7.93;5.10;;;22.50;85.00;;;;;;5030035;28;20040;-83
2021/08/14 00:13:38;;;;;;;6.65;4.95;;;22.50;84.90;;;;;;5013354;28;20521;-82
2021/08/14 00:16:04;;;;;;;6.78;4.65;;;22.50;84.80;;;;;;5012839;28;20534;-83
2021/08/14 00:18:30;;;;;;;8.57;4.70;;;22.50;84.80;;;;;;5013530;28;20030;-83
2021/08/14 00:20:55;;;;;;;7.15;4.70;;;22.30;85.60;;;;;;5012961;28;20057;-81
2021/08/14 00:23:21;;;;;;;7.07;4.95;;;22.30;86.20;;;;;;5029939;28;20029;-83
2021/08/14 00:25:47;;;;;;;10.15;4.45;;;22.30;86.40;;;;;;5013174;28;20041;-82
2021/08/14 00:28:13;;;;;;;6.88;4.90;;;22.20;86.70;;;;;;5012830;28;20048;-81
2021/08/14 00:30:38;;;;;;;7.28;4.78;;;22.20;87.00;;;;;;5013615;28;20120;-82
2021/08/14 00:33:04;;;;;;;6.63;4.80;;;22.20;87.00;;;;;;5013023;28;20045;-82
2021/08/14 00:35:29;;;;;;;10.13;4.78;;;22.20;87.00;;;;;;5029795;28;20401;-81
2021/08/14 00:37:55;;;;;;;8.88;4.75;;;22.10;87.10;;;;;;5013280;28;20050;-81
2021/08/14 00:40:21;;;;;;;7.72;4.90;;;22.10;87.30;;;;;;5014005;28;20018;-81
2021/08/14 00:42:46;;;;;;;7.95;4.63;;;22.00;87.50;;;;;;5012891;28;20471;-81
2021/08/14 00:45:12;;;;;;;10.45;5.00;;;22.00;87.60;;;;;;5013715;28;20181;-82
2021/08/14 00:47:42;;;;;;;6.30;4.50;;;22.00;87.40;;;;;;5013093;28;20026;-81
2021/08/14 00:50:10;;;;;;;7.95;4.78;;;22.00;87.70;;;;;;5012698;28;20021;-81
2021/08/14 00:52:36;;;;;;;6.35;4.68;;;21.90;87.90;;;;;;5029154;28;20486;-82
2021/08/14 00:55:02;;;;;;;8.38;4.80;;;21.90;88.10;;;;;;5012423;28;20034;-82
2021/08/14 00:57:28;;;;;;;6.07;4.00;;;21.80;88.60;;;;;;5012999;28;20026;-81
2021/08/14 00:59:53;;;;;;;10.48;5.10;;;21.80;88.60;;;;;;5013381;28;20165;-82
2021/08/14 01:02:19;;;;;;;8.18;5.53;;;21.80;88.60;;;;;;5013122;28;20069;-81
2021/08/14 01:04:52;;;;;;;8.65;4.45;;;21.70;88.50;;;;;;5012930;28;20060;-82
2021/08/14 01:07:18;;;;;;;6.22;4.38;;;21.70;88.90;;;;;;5012941;28;20395;-81
2021/08/14 01:09:45;;;;;;;7.22;4.43;;;21.60;89.10;;;;;;5013087;28;20167;-82
2021/08/14 01:12:16;;;;;;;6.78;4.63;;;21.60;89.40;;;;;;5012475;28;20038;-81
2021/08/14 01:14:47;;;;;;;7.80;4.27;;;21.60;89.60;;;;;;5013669;28;20028;-82
2021/08/14 01:17:14;;;;;;;;;;;21.50;89.70;;;;;;5017731;28;20044;-81
2021/08/14 01:19:40;;;;;;;8.98;4.50;;;21.60;89.70;;;;;;5016540;28;19905;-81
2021/08/14 01:22:14;;;;;;;8.10;4.40;;;21.50;89.30;;;;;;5015976;28;20092;-83
2021/08/14 01:24:47;;;;;;;8.75;5.05;;;21.50;89.50;;;;;;5016529;28;20026;-83
2021/08/14 01:27:14;;;;;;;7.40;4.40;;;21.40;89.60;;;;;;5016910;28;20475;-83
2021/08/14 01:29:40;;;;;;;8.57;4.30;;;21.40;89.40;;;;;;5017480;28;20026;-82
2021/08/14 01:32:07;;;;;;;6.20;4.25;;;21.50;89.50;;;;;;5015535;28;20108;-82
2021/08/14 01:34:33;;;;;;;7.22;4.85;;;21.40;89.40;;;;;;5017196;28;20030;-82
2021/08/14 01:37:00;;;;;;;6.82;4.93;;;21.40;89.60;;;;;;5015687;28;20164;-83
2021/08/14 01:39:26;;;;;;;6.85;4.88;;;21.30;89.50;;;;;;5016475;28;20080;-83
2021/08/14 01:41:56;;;;;;;8.15;5.07;;;21.10;90.00;;;;;;5016191;28;20029;-82
2021/08/14 01:44:21;;;;;;;6.95;4.28;;;21.00;90.30;;;;;;5016248;28;20033;-83
2021/08/14 01:46:47;;;;;;;6.85;4.50;;;21.00;90.40;;;;;;5016257;28;20026;-82
2021/08/14 01:49:13;;;;;;;7.13;4.43;;;20.90;90.60;;;;;;5015783;28;20041;-81
2021/08/14 01:51:38;;;;;;;9.85;4.43;;;20.90;90.60;;;;;;5017207;28;20041;-81
2021/08/14 01:54:04;;;;;;;7.05;4.57;;;20.90;90.80;;;;;;5015667;28;20120;-82
2021/08/14 01:56:31;;;;;;;8.70;4.75;;;20.80;90.80;;;;;;5016189;28;20030;-82
2021/08/14 01:58:57;;;;;;;6.32;4.65;;;20.70;90.90;;;;;;5015222;28;20030;-82
2021/08/14 02:01:23;;;;;;;6.15;4.18;;;20.70;91.00;;;;;;5015946;28;20037;-82
2021/08/14 02:03:49;;;;;;;6.30;4.53;;;20.70;90.90;;;;;;5015854;28;20117;-80
2021/08/14 02:06:19;;;;;;;6.72;4.25;;;20.80;90.70;;;;;;5015316;28;20121;-82
2021/08/14 02:08:44;;;;;;;7.97;4.97;;;20.80;90.50;;;;;;5015900;28;20026;-80
2021/08/14 02:11:20;;;;;;;9.48;4.85;;;20.80;90.70;;;;;;5031803;28;20493;-83
2021/08/14 02:13:48;;;;;;;7.70;4.78;;;20.70;90.90;;;;;;5016785;28;20029;-81
2021/08/14 02:16:15;;;;;;;11.43;5.25;;;20.60;90.90;;;;;;5015076;28;20293;-83
2021/08/14 02:18:41;;;;;;;8.30;5.00;;;20.50;91.10;;;;;;5015810;28;20050;-83
2021/08/14 02:21:08;;;;;;;7.53;5.15;;;20.60;91.20;;;;;;5015352;28;20030;-83
2021/08/14 02:23:34;;;;;;;8.25;5.07;;;20.60;91.10;;;;;;5016389;28;20091;-83
2021/08/14 02:26:00;;;;;;;7.35;5.30;;;20.60;91.10;;;;;;5013641;28;20034;-83
2021/08/14 02:28:27;;;;;;;8.80;5.70;;;20.60;91.10;;;;;;5015664;28;20030;-82
2021/08/14 02:30:52;;;;;;;10.00;5.47;;;20.60;91.20;;;;;;5015219;28;20105;-82
2021/08/14 02:33:18;;;;;;;7.63;5.18;;;20.70;91.20;;;;;;5015908;28;20161;-83
2021/08/14 02:35:44;;;;;;;7.72;5.72;;;20.70;91.10;;;;;;5015306;28;20129;-83
2021/08/14 02:38:10;;;;;;;8.23;5.43;;;20.70;91.00;;;;;;5014482;28;20045;-83
2021/08/14 02:40:36;;;;;;;9.68;5.35;;;20.60;91.10;;;;;;5016165;28;20026;-83
2021/08/14 02:43:03;;;;;;;8.02;5.15;;;20.50;91.30;;;;;;5015032;28;20080;-82
2021/08/14 02:45:28;;;;;;;9.65;5.13;;;20.60;91.30;;;;;;5014978;28;20085;-80
2021/08/14 02:47:56;;;;;;;8.18;5.65;;;20.60;91.10;;;;;;5014907;28;20471;-81
2021/08/14 02:50:22;;;;;;;7.55;5.47;;;20.60;91.00;;;;;;5015136;28;20036;-84
2021/08/14 02:52:48;;;;;;;7.55;5.55;;;20.50;91.00;;;;;;5015982;28;20467;-82
2021/08/14 02:55:14;;;;;;;6.63;4.82;;;20.50;91.10;;;;;;5014248;28;20129;-82
2021/08/14 02:57:40;;;;;;;8.57;4.88;;;20.40;91.20;;;;;;5014797;28;20034;-81
2021/08/14 03:00:06;;;;;;;8.48;5.13;;;20.40;91.20;;;;;;5014273;28;20022;-83
2021/08/14 03:02:32;;;;;;;7.55;5.00;;;20.40;91.40;;;;;;5014900;28;20030;-82
2021/08/14 03:04:57;;;;;;;7.53;4.88;;;20.30;91.40;;;;;;5015311;28;20049;-90
2021/08/14 03:07:23;;;;;;;7.28;4.97;;;20.30;91.40;;;;;;5014490;28;20030;-82
2021/08/14 03:09:49;;;;;;;8.18;5.22;;;20.30;91.40;;;;;;5015024;28;20026;-81
2021/08/14 03:12:14;;;;;;;7.82;4.85;;;20.20;91.50;;;;;;5014061;28;20128;-81
2021/08/14 03:14:40;;;;;;;8.38;4.88;;;20.20;91.60;;;;;;5014657;28;20033;-82
2021/08/14 03:17:05;;;;;;;6.13;4.78;;;20.20;91.70;;;;;;5014230;28;20030;-82
2021/08/14 03:19:32;;;;;;;7.18;4.55;;;20.20;91.50;;;;;;5014457;28;20037;-81
2021/08/14 03:21:58;;;;;;;6.68;4.60;;;20.20;91.30;;;;;;5014465;28;20029;-82
2021/08/14 03:24:24;;;;;;;7.63;4.80;;;20.10;91.50;;;;;;5014321;28;20025;-81
2021/08/14 03:26:50;;;;;;;7.63;4.45;;;20.10;91.50;;;;;;5015194;28;20029;-83
2021/08/14 03:29:16;;;;;;;6.30;4.57;;;20.00;91.30;;;;;;5013874;28;20034;-83
2021/08/14 03:31:41;;;;;;;8.00;4.55;;;20.00;91.30;;;;;;5014328;28;20376;-82
2021/08/14 03:34:07;;;;;;;6.63;4.20;;;20.00;91.10;;;;;;5013778;28;20037;-83
2021/08/14 03:36:33;;;;;;;7.93;5.15;;;20.00;91.00;;;;;;5014136;28;20030;-83
2021/08/14 03:38:59;;;;;;;6.55;4.40;;;20.00;91.00;;;;;;5013640;28;20432;-82
2021/08/14 03:41:25;;;;;;;10.82;5.72;;;20.00;91.10;;;;;;5013525;28;20037;-83
2021/08/14 03:43:50;;;;;;;7.80;4.82;;;20.00;91.10;;;;;;5013911;28;20026;-82
2021/08/14 03:46:16;;;;;;;6.38;4.45;;;19.90;91.10;;;;;;5013394;28;20471;-82
2021/08/14 03:48:41;;;;;;;6.88;4.53;;;19.80;91.40;;;;;;5013916;28;20022;-81
2021/08/14 03:51:07;;;;;;;6.68;4.88;;;19.80;91.30;;;;;;5014323;28;20026;-80
2021/08/14 03:53:33;;;;;;;9.80;4.88;;;19.60;91.50;;;;;;5013587;28;20490;-81
2021/08/14 03:55:59;;;;;;;6.88;4.50;;;19.60;91.60;;;;;;4997320;28;20495;-82
2021/08/14 03:58:24;;;;;;;9.43;4.95;;;19.60;91.60;;;;;;5013179;28;20062;-82
2021/08/14 04:00:50;;;;;;;7.90;4.70;;;19.60;91.70;;;;;;5013647;28;20097;-81
2021/08/14 04:03:15;;;;;;;7.20;4.47;;;19.60;91.60;;;;;;5014131;28;20113;-81
2021/08/14 04:05:41;;;;;;;6.75;4.70;;;19.60;91.60;;;;;;5013342;28;20356;-80
2021/08/14 04:08:07;;;;;;;6.60;4.65;;;19.50;91.70;;;;;;5014104;28;20022;-82
2021/08/14 04:10:32;;;;;;;7.60;4.63;;;19.40;91.90;;;;;;5014664;28;20030;-81
2021/08/14 04:12:58;;;;;;;7.50;5.13;;;19.40;91.90;;;;;;5013402;28;20388;-82
2021/08/14 04:15:23;;;;;;;7.88;5.22;;;19.50;91.90;;;;;;5013746;28;20117;-82
2021/08/14 04:17:49;;;;;;;6.25;4.85;;;19.40;92.00;;;;;;5013517;28;20022;-81
2021/08/14 04:20:15;;;;;;;6.35;4.80;;;19.40;92.10;;;;;;5013081;28;20365;-81
2021/08/14 04:22:40;;;;;;;6.93;5.30;;;19.40;92.10;;;;;;5014256;28;20030;-82
2021/08/14 04:25:07;;;;;;;6.85;4.68;;;19.40;92.10;;;;;;5012965;28;20494;-82
2021/08/14 04:27:33;;;;;;;6.43;4.32;;;19.40;92.00;;;;;;5013110;28;20030;-82
2021/08/14 04:30:01;;;;;;;7.40;4.22;;;19.50;92.00;;;;;;5013370;28;20033;-82
2021/08/14 04:32:35;;;;;;;5.50;4.10;;;19.50;91.90;;;;;;5014248;28;20131;-82
2021/08/14 04:35:05;;;;;;;8.20;4.25;;;19.50;91.80;;;;;;5013287;28;20152;-82
2021/08/14 04:37:31;;;;;;;8.40;5.22;;;19.50;91.70;;;;;;5012999;28;20050;-82
2021/08/14 04:39:57;;;;;;;7.60;4.53;;;19.50;91.70;;;;;;5013019;28;20026;-82
2021/08/14 04:42:22;;;;;;;8.65;5.28;;;19.40;91.90;;;;;;5012571;28;20334;-81
2021/08/14 04:44:48;;;;;;;5.75;4.30;;;19.40;91.90;;;;;;5013054;28;20481;-82
2021/08/14 04:47:13;;;;;;;7.30;4.38;;;19.50;91.90;;;;;;5012508;28;20076;-83
2021/08/14 04:49:39;;;;;;;7.53;4.60;;;19.50;91.80;;;;;;5012690;28;20033;-82
2021/08/14 04:52:05;;;;;;;7.90;4.60;;;19.50;91.70;;;;;;5012796;28;20472;-83
2021/08/14 04:54:30;;;;;;;7.57;4.88;;;19.50;91.80;;;;;;5013059;28;20034;-81
2021/08/14 04:56:56;;;;;;;5.65;4.22;;;19.40;91.90;;;;;;5012584;28;20034;-82
2021/08/14 04:59:21;;;;;;;7.65;5.03;;;19.40;91.80;;;;;;5012621;28;20033;-82
2021/08/14 05:01:47;;;;;;;5.90;4.15;;;19.50;91.80;;;;;;5012808;28;20037;-81
2021/08/14 05:04:13;;;;;;;7.22;4.30;;;19.50;91.80;;;;;;5013852;28;20463;-82
2021/08/14 05:06:39;;;;;;;6.30;4.40;;;19.50;91.80;;;;;;5012975;28;20053;-82
2021/08/14 05:09:05;;;;;;;5.65;4.30;;;19.50;91.90;;;;;;5013546;28;20033;-93
2021/08/14 05:11:31;;;;;;;6.68;4.32;;;19.50;91.80;;;;;;5012787;28;20030;-83
2021/08/14 05:13:57;;;;;;;7.55;4.80;;;19.60;91.80;;;;;;5012710;28;20036;-83
2021/08/14 05:16:25;;;;;;;8.93;4.30;;;19.50;91.80;;;;;;5012387;28;20109;-83
2021/08/14 05:18:51;;;;;;;7.95;4.03;;;19.50;91.90;;;;;;5012801;28;20037;-82
2021/08/14 05:21:17;;;;;;;6.70;3.90;;;19.50;92.00;;;;;;5013405;28;20034;-82
2021/08/14 05:23:43;;;;;;;7.82;4.35;;;19.60;92.00;;;;;;5012187;28;20029;-83
2021/08/14 05:26:09;;;;;;;6.38;4.28;;;19.60;92.00;;;;;;5013245;28;20032;-83
2021/08/14 05:28:34;;;;;;;7.82;4.60;;;19.60;92.20;;;;;;5013008;28;20026;-81
2021/08/14 05:31:00;;;;;;;5.70;4.38;;;19.50;92.30;;;;;;5012492;28;20387;-82
2021/08/14 05:33:25;;;;;;;6.47;4.18;;;19.50;92.40;;;;;;5012181;28;20048;-82
2021/08/14 05:35:51;;;;;;;6.45;4.45;;;19.60;92.30;;;;;;5012577;28;20436;-82
2021/08/14 05:38:17;;;;;;;7.25;4.30;;;19.60;92.20;;;;;;5011997;28;20058;-82
2021/08/14 05:40:42;;;;;;;8.15;4.70;;;19.70;92.20;;;;;;5012472;28;20034;-82
2021/08/14 05:43:08;;;;;;;6.97;5.00;;;19.60;92.20;;;;;;5012133;28;20030;-82
2021/08/14 05:45:34;;;;;;;8.13;4.20;;;19.70;92.20;;;;;;5012426;28;20026;-82
2021/08/14 05:48:04;;;;;;;9.88;4.63;;;19.70;92.20;;;;;;5012604;28;20022;-82
2021/08/14 05:50:30;;;;;;;7.25;4.47;;;19.70;92.20;;;;;;5012195;28;20026;-82
2021/08/14 05:52:55;;;;;;;7.20;4.30;;;19.70;92.30;;;;;;5013287;28;20088;-83
2021/08/14 05:55:21;;;;;;;6.28;4.30;;;19.60;92.50;;;;;;5011876;28;20034;-82
2021/08/14 05:57:49;;;;;;;7.47;4.35;;;19.70;92.60;;;;;;5012604;28;20026;-83
2021/08/14 06:00:15;;;;;;;7.15;4.10;;;19.70;92.60;;;;;;5012397;28;20113;-82
2021/08/14 06:02:41;;;;;;;8.65;4.53;;;19.70;92.60;;;;;;5016053;28;20030;-83
2021/08/14 06:05:07;;;;;;;7.97;4.10;;;19.70;92.50;;;;;;5015850;28;20030;-82
2021/08/14 06:07:32;;;;;;;5.88;4.45;;;19.80;92.60;;;;;;5015223;28;20029;-82
2021/08/14 06:09:58;;;;;;;10.60;4.28;;;19.90;92.60;;;;;;5015922;28;20022;-81
2021/08/14 06:12:23;;;;;;;7.63;4.38;;;19.80;92.60;;;;;;5016228;28;20080;-81
2021/08/14 06:14:49;;;;;;;7.40;4.97;;;20.00;92.50;;;;;;5015741;28;20391;-82
2021/08/14 06:17:15;;;;;;;7.28;4.43;;;20.00;92.30;;;;;;5014994;28;20084;-82
2021/08/14 06:19:41;;;;;;;6.72;4.50;;;20.10;92.20;;;;;;5015737;28;20026;-82
2021/08/14 06:22:07;;;;;;;8.18;4.93;;;20.10;92.30;;;;;;5015793;28;20034;-81
2021/08/14 06:24:33;;;;;;;5.82;4.18;;;20.20;92.30;;;;;;5015157;28;20026;-81
2021/08/14 06:26:59;;;;;;;6.35;4.45;;;20.20;92.30;;;;;;5016492;28;20467;-82
2021/08/14 06:29:24;;;;;;;8.00;4.68;;;20.30;92.30;;;;;;5014853;28;20036;-82
2021/08/14 06:31:50;;;;;;;7.78;4.93;;;20.30;92.10;;;;;;5016446;28;20030;-82
2021/08/14 06:34:15;;;;;;;6.32;4.70;;;20.40;92.20;;;;;;5014831;28;20037;-82
2021/08/14 06:36:41;;;;;;;8.23;5.40;;;20.50;91.90;;;;;;5015323;28;20029;-82
2021/08/14 06:39:07;;;;;;;8.27;4.95;;;20.50;91.70;;;;;;5015493;28;20038;-82
2021/08/14 06:41:32;;;;;;;6.47;4.80;;;20.60;91.60;;;;;;5015139;28;20030;-82
2021/08/14 06:43:58;;;;;;;7.90;4.60;;;20.70;91.50;;;;;;5015421;28;20478;-83
2021/08/14 06:46:23;;;;;;;8.80;5.97;;;20.70;91.10;;;;;;5014636;28;20030;-83
2021/08/14 06:48:49;;;;;;;7.47;5.32;;;20.80;91.10;;;;;;5015216;28;20030;-83
2021/08/14 06:51:15;;;;;;;8.40;5.10;;;20.90;90.90;;;;;;5014787;28;20033;-81
2021/08/14 06:53:41;;;;;;;5.78;4.32;;;21.00;90.70;;;;;;5016251;28;20455;-83
2021/08/14 06:56:07;;;;;;;8.30;4.57;;;21.00;90.50;;;;;;5014857;28;20057;-83
2021/08/14 06:58:32;;;;;;;7.43;5.70;;;21.00;90.60;;;;;;5014342;28;20037;-82
2021/08/14 07:00:58;;;;;;;8.05;5.20;;;21.10;90.50;;;;;;5015808;28;20029;-82
2021/08/14 07:03:24;;;;;;;7.38;4.45;;;21.10;90.40;;;;;;5014197;28;20029;-82
2021/08/14 07:05:49;;;;;;;6.53;4.63;;;21.20;90.60;;;;;;5014783;28;20152;-82
2021/08/14 07:08:15;;;;;;;9.18;4.80;;;21.20;90.50;;;;;;5015299;28;20467;-83
2021/08/14 07:10:41;;;;;;;8.55;5.28;;;21.30;90.50;;;;;;5014650;28;20037;-81
2021/08/14 07:13:06;;;;;;;7.47;4.53;;;21.30;90.40;;;;;;5014059;28;20025;-83
2021/08/14 07:15:32;;;;;;;9.50;4.60;;;21.40;90.20;;;;;;5014875;28;20192;-82
2021/08/14 07:17:58;;;;;;;7.35;4.68;;;21.40;90.00;;;;;;5014416;28;20041;-81
2021/08/14 07:20:24;;;;;;;8.38;5.10;;;21.50;90.30;;;;;;5013960;28;20387;-83
2021/08/14 07:22:50;;;;;;;7.22;4.80;;;21.50;90.10;;;;;;5014779;28;20061;-83
2021/08/14 07:25:15;;;;;;;7.32;5.10;;;21.60;90.00;;;;;;5003753;28;20104;-82
2021/08/14 07:27:41;;;;;;;6.97;4.85;;;21.60;89.60;;;;;;5006594;28;20596;-82
2021/08/14 07:30:09;;;;;;;6.68;4.82;;;21.60;89.40;;;;;;5001761;28;20018;-82
2021/08/14 07:32:35;;;;;;;7.63;4.20;;;21.70;89.20;;;;;;5013456;28;20065;-82
2021/08/14 07:35:02;;;;;;;6.65;4.55;;;21.70;89.40;;;;;;5008695;28;20030;-82
2021/08/14 07:37:28;;;;;;;6.63;4.95;;;21.80;89.40;;;;;;5029555;28;20044;-83
2021/08/14 07:39:54;;;;;;;8.95;4.70;;;21.80;89.30;;;;;;5013909;28;20025;-83
2021/08/14 07:42:19;;;;;;;7.07;4.60;;;21.80;88.80;;;;;;5013447;28;20036;-83
2021/08/14 07:44:45;;;;;;;7.25;4.88;;;21.90;88.90;;;;;;5015053;28;20443;-82
2021/08/14 07:47:11;;;;;;;7.65;4.72;;;21.90;88.80;;;;;;5029845;28;20364;-82
2021/08/14 07:49:37;;;;;;;7.55;4.78;;;22.00;88.40;;;;;;5013621;28;20049;-82
2021/08/14 07:52:03;;;;;;;6.60;4.72;;;22.10;88.00;;;;;;5014151;28;20434;-83
2021/08/14 07:54:28;;;;;;;6.80;4.30;;;22.00;87.50;;;;;;5013386;28;20056;-83
2021/08/14 07:56:56;;;;;;;7.38;4.88;;;22.00;87.30;;;;;;5013985;28;20052;-83
2021/08/14 07:59:22;;;;;;;7.03;4.57;;;22.10;88.00;;;;;;5013507;28;20098;-84
2021/08/14 08:01:47;;;;;;;7.30;4.40;;;22.10;87.70;;;;;;5013890;28;20072;-84
2021/08/14 08:04:13;;;;;;;9.02;4.90;;;22.20;87.20;;;;;;5014099;28;20060;-83
2021/08/14 08:06:39;;;;;;;8.63;4.60;;;22.30;87.70;;;;;;5014199;28;20444;-84
2021/08/14 08:09:06;;;;;;;8.68;4.88;;;22.30;87.70;;;;;;5013770;28;20029;-84
2021/08/14 08:11:32;;;;;;;7.75;4.60;;;22.40;87.70;;;;;;5012930;28;20367;-83
2021/08/14 08:13:58;;;;;;;9.85;5.07;;;22.40;87.60;;;;;;5009339;28;20038;-82
2021/08/14 08:16:23;;;;;;;9.48;4.85;;;22.40;87.60;;;;;;5011547;28;20125;-82
2021/08/14 08:18:49;;;;;;;9.82;5.18;;;22.50;87.70;;;;;;5013518;28;20100;-82
2021/08/14 08:21:15;;;;;;;7.90;4.72;;;22.50;87.40;;;;;;5012911;28;20089;-81
2021/08/14 08:23:40;;;;;;;5.63;4.18;;;22.50;87.00;;;;;;5013075;28;20085;-81
2021/08/14 08:26:06;;;;;;;10.13;4.80;;;22.60;86.70;;;;;;5012740;28;20034;-80
2021/08/14 08:28:32;;;;;;;6.20;4.38;;;22.60;85.90;;;;;;5012791;28;20026;-81
2021/08/14 08:30:57;;;;;;;8.18;4.82;;;22.60;85.60;;;;;;5014032;28;20034;-83
2021/08/14 08:33:24;;;;;;;8.80;5.00;;;22.70;85.60;;;;;;5013433;28;20446;-83
2021/08/14 08:35:50;;;;;;;10.52;4.85;;;22.70;86.00;;;;;;5012877;28;20014;-83
2021/08/14 08:38:15;;;;;;;5.93;4.78;;;22.80;86.50;;;;;;5012585;28;20429;-81
2021/08/14 08:40:50;;;;;;;6.65;4.45;;;22.90;86.30;;;;;;5012586;28;20022;-81
2021/08/14 08:43:16;;;;;;;8.30;4.95;;;22.80;86.10;;;;;;5013295;28;20022;-81
2021/08/14 08:45:47;;;;;;;7.85;4.75;;;22.90;85.70;;;;;;5012306;28;20355;-82
2021/08/14 08:48:18;;;;;;;7.10;4.78;;;23.00;85.50;;;;;;5006207;28;20116;-81
2021/08/14 08:50:45;;;;;;;7.85;4.78;;;23.00;85.30;;;;;;5014632;28;20034;-83
2021/08/14 08:53:12;;;;;;;5.93;4.53;;;23.00;85.40;;;;;;5014162;28;20053;-81
2021/08/14 08:55:39;;;;;;;5.95;4.55;;;23.10;85.50;;;;;;5012971;28;20176;-80
2021/08/14 08:58:05;;;;;;;7.88;4.53;;;23.10;85.60;;;;;;5012391;28;20022;-80
2021/08/14 09:00:30;;;;;;;7.28;4.75;;;23.20;84.80;;;;;;5011514;28;20030;-82
2021/08/14 09:03:11;;;;;;;9.88;4.75;;;23.20;84.80;;;;;;5028476;28;20467;-84
2021/08/14 09:05:51;;;;;;;8.55;4.90;;;23.30;84.90;;;;;;5011811;28;20017;-81
2021/08/14 09:08:18;;;;;;;7.60;4.25;;;23.40;84.00;;;;;;5012561;28;20037;-81
2021/08/14 09:10:44;;;;;;;7.90;4.85;;;23.40;84.10;;;;;;5012173;28;20026;-81
2021/08/14 09:13:18;;;;;;;7.15;4.88;;;23.50;84.20;;;;;;5012449;28;20030;-80
2021/08/14 09:15:52;;;;;;;7.00;4.60;;;23.50;83.90;;;;;;5011867;28;20030;-81
2021/08/14 09:18:21;;;;;;;5.88;4.18;;;23.60;83.70;;;;;;4996300;28;20050;-81
2021/08/14 09:21:27;;;;;;;7.05;4.55;;;23.60;83.50;;;;;;5012959;28;20033;-80
2021/08/14 09:23:54;;;;;;;5.93;4.07;;;23.70;83.20;;;;;;5012046;28;20030;-79
2021/08/14 09:26:20;;;;;;;6.88;4.25;;;23.70;82.90;;;;;;5011692;28;20038;-89
2021/08/14 09:29:01;;;;;;;8.77;4.03;;;23.80;82.50;;;;;;5012005;28;20032;-80
2021/08/14 09:31:44;;;;;;;6.60;4.10;;;23.80;82.50;;;;;;4991628;28;20046;-81
2021/08/14 09:34:21;;;;;;;10.05;4.60;;;23.90;82.20;;;;;;4975558;28;20065;-80
2021/08/14 09:37:27;;;;;;;6.80;4.68;;;23.90;81.50;;;;;;4962493;28;20038;-81
2021/08/14 09:40:01;;;;;;;6.50;4.40;;;24.00;80.90;;;;;;4959356;28;20534;-80
2021/08/14 09:42:28;;;;;;;11.73;4.80;;;24.10;80.50;;;;;;4972089;28;20069;-80
2021/08/14 09:45:14;;;;;;;7.05;4.35;;;24.10;79.70;;;;;;4956583;29;20039;-81
2021/08/14 09:47:41;;;;;;;6.50;4.22;;;24.20;79.20;;;;;;4943048;29;20085;-80
2021/08/14 09:50:09;;;;;;;5.80;4.00;;;24.20;79.70;;;;;;4956147;29;20035;-80
2021/08/14 09:52:36;;;;;;;5.20;4.30;;;24.20;79.50;;;;;;4955964;29;20046;-80
2021/08/14 09:55:03;;;;;;;6.60;4.05;;;24.30;78.90;;;;;;4937012;29;20534;-80
2021/08/14 09:57:28;;;;;;;6.50;4.10;;;24.30;78.70;;;;;;4939275;29;20468;-80
2021/08/14 09:59:54;;;;;;;5.65;3.60;;;24.30;77.80;;;;;;4956141;29;20123;-80
2021/08/14 10:02:26;;;;;;;6.13;4.40;;;24.40;77.50;;;;;;4967918;28;20039;-80
2021/08/14 10:04:57;;;;;;;7.28;3.90;;;24.40;77.50;;;;;;4978839;28;20085;-81
2021/08/14 10:07:24;;;;;;;7.57;4.20;;;24.40;76.50;;;;;;4978221;28;20026;-85
2021/08/14 10:09:51;;;;;;;5.60;3.45;;;24.50;76.00;;;;;;4978171;28;20022;-80
2021/08/14 10:12:19;;;;;;;5.05;3.83;;;24.60;74.50;;;;;;4961111;28;20084;-80
2021/08/14 10:14:48;;;;;;;5.30;3.10;;;24.70;72.50;;;;;;4977369;28;20026;-80
2021/08/14 10:17:16;;;;;;;5.45;3.75;;;24.70;72.70;;;;;;4998626;28;20041;-79
2021/08/14 10:19:42;;;;;;;5.88;3.97;;;24.80;72.30;;;;;;5014650;28;20026;-80
2021/08/14 10:22:09;;;;;;;6.22;4.00;;;24.80;72.20;;;;;;5015407;28;20091;-80
2021/08/14 10:24:42;;;;;;;5.88;3.67;;;24.90;72.30;;;;;;5014693;28;20108;-79
2021/08/14 10:27:14;;;;;;;6.68;3.65;;;25.00;71.60;;;;;;5030175;28;20037;-82
2021/08/14 10:29:58;;;;;;;5.15;3.38;;;25.10;70.00;;;;;;5008269;28;20027;-81
2021/08/14 10:32:30;;;;;;;5.45;3.67;;;25.10;68.70;;;;;;5010895;28;20059;-85
2021/08/14 10:35:14;;;;;;;5.40;3.70;;;25.40;69.20;;;;;;5020299;28;20033;-78
2021/08/14 10:37:45;;;;;;;7.85;3.53;;;25.40;67.90;;;;;;5024812;28;20041;-81
2021/08/14 10:40:14;;;;;;;6.15;3.40;;;25.50;68.40;;;;;;5015265;28;20030;-81
2021/08/14 10:42:57;;;;;;;6.35;3.35;;;25.50;68.90;;;;;;5008969;28;20038;-81
2021/08/14 10:45:35;;;;;;;4.30;3.50;;;25.60;69.70;;;;;;5018951;28;20120;-84
2021/08/14 10:48:05;;;;;;;5.10;3.70;;;25.70;69.30;;;;;;5028526;28;20036;-86
2021/08/14 10:50:31;;;;;;;4.87;3.97;;;25.80;68.40;;;;;;5019066;28;20125;-82
2021/08/14 10:53:16;;;;;;;6.78;3.47;;;25.80;67.40;;;;;;5017259;28;20033;-80
2021/08/14 10:55:44;;;;;;;4.15;3.30;;;25.80;65.50;;;;;;5014340;28;20037;-81
2021/08/14 10:58:29;;;;;;;8.57;3.55;;;26.00;66.20;;;;;;5025466;28;20034;-81
2021/08/14 11:01:03;;;;;;;7.00;4.00;;;26.00;66.20;;;;;;5001919;28;20062;-80
2021/08/14 11:03:36;;;;;;;7.07;3.88;;;26.00;68.60;;;;;;5022798;28;20943;-88
2021/08/14 11:06:21;;;;;;;5.03;3.20;;;26.00;66.60;;;;;;5003696;28;20053;-81
2021/08/14 11:08:46;;;;;;;4.88;3.55;;;26.00;68.40;;;;;;4995522;28;20022;-83
2021/08/14 11:11:50;;;;;;;5.22;3.88;;;26.00;68.70;;;;;;5012541;28;20491;-81
2021/08/14 11:14:16;;;;;;;5.88;3.95;;;26.00;66.70;;;;;;4986287;28;20034;-82
2021/08/14 11:17:01;;;;;;;7.50;3.95;;;26.10;67.70;;;;;;5011449;28;20073;-79
2021/08/14 11:19:49;;;;;;;6.07;3.83;;;26.10;68.00;;;;;;5009723;28;20037;-87
2021/08/14 11:22:32;;;;;;;4.85;3.63;;;26.10;66.90;;;;;;5009488;28;20368;-82
2021/08/14 11:25:04;;;;;;;4.57;3.63;;;26.20;65.20;;;;;;4996265;28;20049;-86
2021/08/14 11:27:34;;;;;;;5.07;3.55;;;26.20;66.40;;;;;;5009630;28;20030;-84
2021/08/14 11:30:07;;;;;;;4.90;3.88;;;26.20;65.60;;;;;;5009218;28;20049;-82
2021/08/14 11:32:33;;;;;;;5.07;3.70;;;26.30;67.40;;;;;;5006488;28;20432;-81
2021/08/14 11:35:00;;;;;;;11.25;4.13;;;26.40;68.30;;;;;;5013574;28;20026;-87
2021/08/14 11:37:27;;;;;;;8.25;4.00;;;26.40;68.30;;;;;;5016673;28;20069;-86
2021/08/14 11:40:03;;;;;;;9.68;4.28;;;26.50;68.30;;;;;;5030372;28;20025;-84
2021/08/14 11:42:30;;;;;;;5.60;3.58;;;26.60;66.60;;;;;;5012465;28;20451;-87
2021/08/14 11:44:57;;;;;;;6.88;3.72;;;26.50;66.90;;;;;;5013946;28;20033;-87
2021/08/14 11:47:37;;;;;;;5.90;4.10;;;26.60;67.10;;;;;;5017787;28;20160;-86
2021/08/14 11:50:06;;;;;;;7.25;3.83;;;26.70;66.90;;;;;;5014819;28;20029;-85
2021/08/14 11:52:31;;;;;;;6.28;4.03;;;26.80;66.70;;;;;;5013864;28;20026;-85
2021/08/14 11:55:08;;;;;;;6.20;3.88;;;26.80;66.60;;;;;;5012702;28;20033;-86
2021/08/14 11:57:39;;;;;;;9.25;4.07;;;26.80;66.90;;;;;;5013627;28;20046;-87
2021/08/14 12:00:17;;;;;;;8.70;4.18;;;26.90;67.40;;;;;;5013018;28;20096;-89
2021/08/14 12:02:44;;;;;;;6.35;4.03;;;26.90;66.30;;;;;;5011107;28;20036;-86
2021/08/14 12:05:10;;;;;;;4.65;4.07;;;27.00;65.70;;;;;;5013028;28;20014;-88
2021/08/14 12:07:35;;;;;;;5.68;3.78;;;27.00;65.60;;;;;;5028031;28;20080;-89
2021/08/14 12:10:01;;;;;;;5.65;3.95;;;27.00;66.10;;;;;;5020832;28;20547;-88
2021/08/14 12:12:29;;;;;;;4.68;3.55;;;27.10;66.30;;;;;;5013377;28;20494;-87
2021/08/14 12:14:55;;;;;;;6.70;3.97;;;27.10;67.10;;;;;;5014276;28;20118;-86
2021/08/14 12:17:21;;;;;;;6.85;4.15;;;27.20;66.50;;;;;;5011414;28;20153;-88
2021/08/14 12:19:50;;;;;;;5.88;4.05;;;27.40;65.50;;;;;;4994392;28;20026;-87
2021/08/14 12:22:16;;;;;;;8.55;4.45;;;27.40;65.40;;;;;;5013197;28;20038;-84
2021/08/14 12:24:44;;;;;;;4.85;4.10;;;27.50;66.10;;;;;;5012826;28;20032;-85
2021/08/14 12:27:31;;;;;;;6.93;3.88;;;27.50;66.30;;;;;;5008211;28;20117;-86
2021/08/14 12:30:22;;;;;;;6.45;3.97;;;27.60;66.20;;;;;;5013315;28;20026;-86
2021/08/14 12:32:51;;;;;;;7.82;4.40;;;27.80;63.40;;;;;;5011403;28;20525;-86
2021/08/14 12:35:19;;;;;;;6.28;4.15;;;28.00;63.40;;;;;;5013369;28;20034;-80
2021/08/14 12:37:45;;;;;;;8.05;4.68;;;28.10;64.70;;;;;;5011674;28;20471;-80
2021/08/14 12:40:14;;;;;;;6.20;3.90;;;28.30;63.50;;;;;;5004086;28;20048;-82
2021/08/14 12:42:40;;;;;;;6.40;4.07;;;28.50;64.10;;;;;;5012024;28;20423;-81
2021/08/14 12:45:24;;;;;;;6.78;3.97;;;28.70;63.10;;;;;;5012475;28;20052;-83
2021/08/14 12:47:52;;;;;;;6.45;4.05;;;28.80;62.50;;;;;;5014175;28;20060;-83
2021/08/14 12:50:39;;;;;;;7.30;3.55;;;29.00;61.30;;;;;;5012649;28;20025;-84